Time;durP1;ratioP1;P1;durP2;ratioP2;P2;SDS_P1;SDS_P2;PMS_P1;PMS_P2;Temp;Humidity;BMP_temperature;BMP_pressure;BME280_temperature;BME280_humidity;BME280_pressure;Samples;Min_cycle;Max_cycle;Signal;HPM_P1;HPM_P2
2024/03/20 00:01:55;;;;;;;4.65;3.47;;;15.90;78.00;;;;;;4978890;28;20063;-35
2024/03/20 00:04:21;;;;;;;4.75;3.47;;;15.90;78.00;;;;;;4974910;28;20026;-36
2024/03/20 00:06:47;;;;;;;5.53;3.60;;;15.90;78.00;;;;;;4972605;28;20046;-39
2024/03/20 00:09:13;;;;;;;6.20;3.60;;;15.80;78.00;;;;;;4976652;28;20120;-37
2024/03/20 00:11:39;;;;;;;5.57;3.53;;;15.90;78.10;;;;;;4970898;28;20051;-36
2024/03/20 00:14:05;;;;;;;5.50;3.50;;;15.80;78.00;;;;;;4970492;28;20222;-37
2024/03/20 00:16:31;;;;;;;5.50;3.33;;;15.80;78.00;;;;;;4975836;28;20023;-38
2024/03/20 00:18:57;;;;;;;5.43;3.50;;;15.70;78.00;;;;;;4963602;28;20034;-37
2024/03/20 00:21:23;;;;;;;5.90;3.80;;;15.70;78.00;;;;;;4975953;28;20054;-38
2024/03/20 00:23:49;;;;;;;6.60;3.88;;;15.70;78.10;;;;;;4970834;28;20540;-38
2024/03/20 00:26:14;;;;;;;5.28;3.80;;;15.70;78.10;;;;;;4953644;28;20083;-38
2024/03/20 00:28:41;;;;;;;5.68;3.67;;;15.70;78.10;;;;;;4977097;28;20033;-35
2024/03/20 00:31:06;;;;;;;4.82;3.45;;;15.60;78.00;;;;;;4964168;28;20050;-33
2024/03/20 00:33:32;;;;;;;5.82;3.53;;;15.60;78.10;;;;;;4968460;28;20034;-38
2024/03/20 00:35:58;;;;;;;6.70;4.10;;;15.60;78.10;;;;;;4979401;28;20491;-38
2024/03/20 00:38:24;;;;;;;5.25;3.67;;;15.60;78.10;;;;;;4968285;28;20066;-37
2024/03/20 00:40:50;;;;;;;5.60;3.80;;;15.60;78.10;;;;;;4979542;28;20027;-36
2024/03/20 00:43:16;;;;;;;5.50;3.88;;;15.50;78.00;;;;;;4978710;28;20062;-37
2024/03/20 00:45:42;;;;;;;7.05;4.00;;;15.50;78.00;;;;;;4987188;28;20035;-38
2024/03/20 00:48:08;;;;;;;5.72;3.60;;;15.50;78.00;;;;;;4976034;28;20055;-37
2024/03/20 00:50:34;;;;;;;6.20;3.63;;;15.50;78.10;;;;;;4971928;28;20031;-38
2024/03/20 00:53:00;;;;;;;5.43;3.80;;;15.50;78.10;;;;;;4970071;28;20083;-37
2024/03/20 00:55:26;;;;;;;5.03;4.20;;;15.40;78.00;;;;;;4968194;28;20027;-35
2024/03/20 00:57:51;;;;;;;4.97;3.35;;;15.40;78.10;;;;;;4970310;28;20759;-35
2024/03/20 01:00:17;;;;;;;6.43;4.18;;;15.40;78.10;;;;;;4972735;28;20022;-33
2024/03/20 01:02:43;;;;;;;6.55;4.03;;;15.40;78.10;;;;;;4969955;28;20135;-38
2024/03/20 01:05:11;;;;;;;5.30;4.00;;;15.30;78.10;;;;;;4973851;28;20058;-35
2024/03/20 01:07:36;;;;;;;6.45;3.95;;;15.30;78.10;;;;;;4970029;28;20049;-34
2024/03/20 01:10:03;;;;;;;5.35;4.00;;;15.30;78.10;;;;;;4960936;28;20126;-36
2024/03/20 01:12:30;;;;;;;5.95;4.15;;;15.30;78.20;;;;;;4967141;28;20509;-34
2024/03/20 01:14:56;;;;;;;5.30;3.65;;;15.30;78.80;;;;;;4982102;28;20062;-37
2024/03/20 01:17:22;;;;;;;6.03;3.97;;;15.20;78.10;;;;;;4976509;28;20523;-36
2024/03/20 01:19:48;;;;;;;4.57;3.75;;;15.20;78.10;;;;;;4976665;28;20576;-35
2024/03/20 01:22:13;;;;;;;8.20;3.75;;;15.20;78.10;;;;;;4970755;28;20058;-36
2024/03/20 01:24:39;;;;;;;6.07;3.83;;;15.20;78.10;;;;;;4967434;28;20555;-39
2024/03/20 01:27:05;;;;;;;5.97;4.05;;;15.20;78.80;;;;;;4974803;28;20102;-34
2024/03/20 01:29:31;;;;;;;6.38;3.95;;;15.10;78.10;;;;;;4976584;28;20414;-37
2024/03/20 01:31:57;;;;;;;4.95;3.70;;;15.10;78.10;;;;;;4971546;28;20035;-34
2024/03/20 01:34:22;;;;;;;5.50;3.78;;;15.10;78.10;;;;;;4964657;28;20121;-35
2024/03/20 01:36:50;;;;;;;5.53;3.65;;;15.10;78.10;;;;;;4977851;28;20022;-38
2024/03/20 01:39:17;;;;;;;5.38;3.85;;;15.10;78.10;;;;;;4977187;28;20391;-34
2024/03/20 01:41:42;;;;;;;6.35;3.72;;;15.00;78.10;;;;;;4976864;28;20030;-36
2024/03/20 01:44:11;;;;;;;5.97;4.30;;;15.00;78.10;;;;;;4971872;28;20046;-33
2024/03/20 01:46:37;;;;;;;5.35;4.00;;;15.00;78.20;;;;;;4978641;28;20037;-36
2024/03/20 01:49:06;;;;;;;5.10;3.90;;;15.00;78.20;;;;;;4979202;28;20058;-36
2024/03/20 01:51:32;;;;;;;5.68;3.83;;;15.00;78.20;;;;;;4969689;28;20043;-36
2024/03/20 01:54:02;;;;;;;5.75;4.10;;;15.00;78.20;;;;;;4980152;28;20037;-38
2024/03/20 01:56:28;;;;;;;5.05;3.53;;;14.90;78.10;;;;;;4985697;28;20038;-33
2024/03/20 01:58:54;;;;;;;5.00;3.70;;;14.90;78.20;;;;;;4956929;28;20031;-36
2024/03/20 02:01:21;;;;;;;5.68;3.97;;;14.90;78.20;;;;;;4974009;28;20058;-33
2024/03/20 02:03:47;;;;;;;5.30;3.72;;;14.80;78.20;;;;;;4972747;28;20038;-38
2024/03/20 02:06:21;;;;;;;5.40;3.78;;;14.80;78.20;;;;;;4991051;28;20105;-35
2024/03/20 02:08:48;;;;;;;4.68;3.65;;;14.80;78.20;;;;;;4974729;28;20483;-38
2024/03/20 02:11:14;;;;;;;6.35;4.10;;;14.80;78.30;;;;;;4976588;28;20605;-38
2024/03/20 02:13:48;;;;;;;5.97;4.47;;;14.70;78.20;;;;;;4980267;28;20035;-38
2024/03/20 02:16:17;;;;;;;7.18;4.40;;;14.80;78.30;;;;;;4983301;28;20049;-35
2024/03/20 02:18:44;;;;;;;7.13;4.22;;;14.70;78.30;;;;;;4982516;28;20507;-33
2024/03/20 02:21:11;;;;;;;5.53;4.00;;;14.70;78.30;;;;;;4969169;28;20046;-34
2024/03/20 02:23:37;;;;;;;5.43;4.25;;;14.70;78.30;;;;;;4980951;28;20107;-33
2024/03/20 02:26:07;;;;;;;7.07;4.53;;;14.60;78.30;;;;;;4976158;28;20030;-38
2024/03/20 02:28:34;;;;;;;6.18;4.28;;;14.60;78.30;;;;;;4978278;28;20436;-35
2024/03/20 02:31:01;;;;;;;6.47;4.30;;;14.60;78.30;;;;;;4981851;28;20033;-34
2024/03/20 02:33:27;;;;;;;5.95;4.65;;;14.60;78.30;;;;;;4980401;28;20497;-37
2024/03/20 02:35:53;;;;;;;6.05;4.60;;;14.50;78.30;;;;;;4983106;28;20051;-35
2024/03/20 02:38:29;;;;;;;6.10;4.40;;;14.50;78.30;;;;;;4966626;28;20023;-42
2024/03/20 02:40:56;;;;;;;8.05;4.53;;;14.60;78.50;;;;;;4979009;28;20675;-37
2024/03/20 02:43:22;;;;;;;5.63;3.75;;;14.50;78.40;;;;;;4980437;28;20106;-41
2024/03/20 02:45:48;;;;;;;6.07;3.97;;;14.50;78.50;;;;;;4975706;28;20100;-39
2024/03/20 02:48:14;;;;;;;6.22;4.30;;;14.40;78.40;;;;;;4969977;28;20109;-38
2024/03/20 02:50:43;;;;;;;5.95;4.25;;;14.50;78.50;;;;;;4967446;28;20019;-36
2024/03/20 02:53:09;;;;;;;6.20;4.13;;;14.40;78.50;;;;;;4978755;28;20062;-39
2024/03/20 02:55:38;;;;;;;5.88;4.60;;;14.40;79.20;;;;;;4980778;28;20042;-40
2024/03/20 02:58:04;;;;;;;6.80;4.43;;;14.40;78.50;;;;;;4981824;28;20030;-36
2024/03/20 03:00:30;;;;;;;5.63;4.40;;;14.40;78.60;;;;;;4972231;28;20030;-40
2024/03/20 03:02:57;;;;;;;5.32;4.38;;;14.40;78.60;;;;;;4976818;28;20039;-40
2024/03/20 03:05:27;;;;;;;6.20;4.65;;;14.30;78.50;;;;;;4975784;28;20561;-41
2024/03/20 03:07:54;;;;;;;6.15;4.38;;;14.30;78.60;;;;;;4955527;28;20136;-40
2024/03/20 03:10:21;;;;;;;6.72;4.70;;;14.30;78.60;;;;;;4958043;28;20045;-41
2024/03/20 03:12:51;;;;;;;5.93;4.22;;;14.30;78.50;;;;;;4967053;28;20030;-41
2024/03/20 03:15:18;;;;;;;6.05;4.85;;;14.30;78.50;;;;;;4972734;28;20030;-41
2024/03/20 03:17:49;;;;;;;6.90;4.47;;;14.30;78.60;;;;;;4979943;28;20038;-40
2024/03/20 03:20:14;;;;;;;5.65;4.15;;;14.20;78.50;;;;;;4978753;28;20612;-41
2024/03/20 03:22:44;;;;;;;6.63;4.25;;;14.20;78.60;;;;;;4978804;28;20031;-40
2024/03/20 03:25:11;;;;;;;6.63;4.20;;;14.20;78.50;;;;;;4978187;28;20030;-39
2024/03/20 03:27:37;;;;;;;6.82;4.50;;;14.20;78.50;;;;;;4969181;28;20028;-41
2024/03/20 03:30:05;;;;;;;5.90;4.00;;;14.20;78.60;;;;;;4973589;28;20031;-41
2024/03/20 03:32:31;;;;;;;5.97;4.25;;;14.20;78.60;;;;;;4975182;28;20463;-44
2024/03/20 03:34:57;;;;;;;5.65;4.03;;;14.10;78.60;;;;;;4972304;28;20320;-39
2024/03/20 03:37:23;;;;;;;5.32;4.00;;;14.10;78.60;;;;;;4977798;28;20042;-40
2024/03/20 03:39:51;;;;;;;6.10;4.28;;;14.10;78.60;;;;;;4975168;28;20031;-40
2024/03/20 03:42:17;;;;;;;6.00;4.30;;;14.10;78.70;;;;;;4959605;28;20074;-41
2024/03/20 03:44:43;;;;;;;6.05;4.35;;;14.00;78.70;;;;;;4951209;28;20126;-41
2024/03/20 03:47:09;;;;;;;5.13;3.70;;;14.00;78.60;;;;;;4970011;28;20030;-41
2024/03/20 03:49:35;;;;;;;5.70;3.78;;;14.00;78.70;;;;;;4976668;28;20019;-39
2024/03/20 03:52:01;;;;;;;7.00;4.07;;;14.00;78.70;;;;;;4982543;28;20047;-40
2024/03/20 03:54:26;;;;;;;6.45;4.25;;;14.00;78.70;;;;;;4982455;28;20529;-40
2024/03/20 03:56:52;;;;;;;6.75;4.53;;;14.00;78.70;;;;;;4973187;28;20018;-41
2024/03/20 03:59:18;;;;;;;6.13;4.45;;;13.90;78.70;;;;;;4975138;28;20041;-40
2024/03/20 04:01:47;;;;;;;5.70;4.40;;;14.00;78.70;;;;;;4975754;28;20603;-40
2024/03/20 04:04:13;;;;;;;5.57;4.13;;;13.90;78.70;;;;;;4978148;28;20034;-41
2024/03/20 04:06:39;;;;;;;5.30;3.92;;;13.90;78.70;;;;;;4977509;28;20026;-42
2024/03/20 04:09:05;;;;;;;5.60;4.30;;;13.90;78.70;;;;;;4978499;28;20023;-41
2024/03/20 04:11:32;;;;;;;6.55;4.43;;;13.90;78.70;;;;;;4979943;28;20030;-37
2024/03/20 04:13:57;;;;;;;6.38;4.28;;;13.90;78.80;;;;;;4974617;28;20029;-41
2024/03/20 04:16:23;;;;;;;5.63;4.03;;;13.90;78.80;;;;;;4966205;28;20074;-41
2024/03/20 04:18:49;;;;;;;5.70;4.05;;;13.90;78.80;;;;;;4976336;28;20026;-39
2024/03/20 04:21:15;;;;;;;6.18;4.40;;;13.90;78.80;;;;;;4978151;28;20128;-41
2024/03/20 04:23:41;;;;;;;5.50;3.90;;;13.80;79.40;;;;;;4973595;28;20106;-42
2024/03/20 04:26:06;;;;;;;6.13;4.28;;;13.80;78.80;;;;;;4975282;28;20085;-39
2024/03/20 04:28:33;;;;;;;6.18;4.32;;;13.80;78.80;;;;;;4979368;28;20059;-40
2024/03/20 04:30:59;;;;;;;6.18;3.80;;;13.80;78.80;;;;;;4977313;28;20050;-40
2024/03/20 04:33:24;;;;;;;5.60;4.10;;;13.70;78.80;;;;;;4980278;28;20027;-41
2024/03/20 04:35:51;;;;;;;5.07;3.67;;;13.80;78.80;;;;;;4982833;28;20118;-41
2024/03/20 04:38:17;;;;;;;5.97;4.03;;;13.70;78.80;;;;;;4958996;28;20033;-40
2024/03/20 04:40:42;;;;;;;6.20;4.15;;;13.70;78.80;;;;;;4977393;28;20030;-42
2024/03/20 04:43:08;;;;;;;5.82;3.83;;;13.70;78.80;;;;;;4971357;28;20030;-42
2024/03/20 04:45:34;;;;;;;5.13;3.88;;;13.70;78.80;;;;;;4984901;28;20040;-43
2024/03/20 04:48:00;;;;;;;6.90;4.35;;;13.70;78.80;;;;;;4975755;28;20606;-40
2024/03/20 04:50:25;;;;;;;5.47;4.07;;;13.70;79.50;;;;;;4975608;28;20031;-42
2024/03/20 04:52:51;;;;;;;6.10;3.95;;;13.60;78.90;;;;;;4969672;28;20039;-41
2024/03/20 04:55:17;;;;;;;5.65;4.13;;;13.60;78.90;;;;;;4965993;28;20039;-38
2024/03/20 04:57:42;;;;;;;6.00;4.28;;;13.60;78.90;;;;;;4974113;28;20448;-40
2024/03/20 05:00:17;;;;;;;5.22;4.00;;;13.60;78.90;;;;;;4969328;28;20042;-41
2024/03/20 05:02:45;;;;;;;5.28;3.80;;;13.60;79.00;;;;;;4967845;28;20023;-41
2024/03/20 05:05:10;;;;;;;6.07;4.05;;;13.50;78.90;;;;;;4974077;28;20076;-40
2024/03/20 05:07:37;;;;;;;5.70;4.03;;;13.60;79.00;;;;;;4977329;28;20023;-39
2024/03/20 05:10:04;;;;;;;5.90;4.07;;;13.50;78.90;;;;;;4972956;28;20077;-38
2024/03/20 05:12:30;;;;;;;5.72;4.15;;;13.50;79.00;;;;;;4974711;28;20026;-39
2024/03/20 05:14:56;;;;;;;6.68;4.45;;;13.50;79.00;;;;;;4981394;28;20073;-34
2024/03/20 05:17:22;;;;;;;7.47;3.92;;;13.50;79.00;;;;;;4961026;28;20031;-39
2024/03/20 05:19:48;;;;;;;5.60;4.50;;;13.50;79.00;;;;;;4964415;28;20034;-36
2024/03/20 05:22:14;;;;;;;5.97;4.15;;;13.40;79.00;;;;;;4969030;28;20035;-38
2024/03/20 05:24:40;;;;;;;6.05;4.30;;;13.40;79.00;;;;;;4975471;28;20093;-38
2024/03/20 05:27:07;;;;;;;5.25;4.00;;;13.40;79.00;;;;;;4960044;28;20031;-36
2024/03/20 05:29:33;;;;;;;6.20;4.18;;;13.40;79.00;;;;;;4969043;28;20429;-36
2024/03/20 05:31:59;;;;;;;5.90;4.10;;;13.40;79.00;;;;;;4953650;28;20034;-34
2024/03/20 05:34:25;;;;;;;5.57;3.95;;;13.40;79.00;;;;;;4971711;28;20051;-40
2024/03/20 05:36:51;;;;;;;6.75;4.18;;;13.40;79.00;;;;;;4970366;28;20039;-37
2024/03/20 05:39:16;;;;;;;5.50;3.88;;;13.30;79.00;;;;;;4970623;28;20080;-33
2024/03/20 05:41:42;;;;;;;5.05;3.80;;;13.30;79.00;;;;;;4973344;28;20482;-37
2024/03/20 05:44:08;;;;;;;5.57;3.97;;;13.30;79.00;;;;;;4976631;28;20042;-39
2024/03/20 05:46:34;;;;;;;5.38;4.18;;;13.30;79.10;;;;;;4977082;28;20096;-35
2024/03/20 05:49:00;;;;;;;6.53;4.35;;;13.30;79.10;;;;;;4979612;28;20441;-39
2024/03/20 05:51:26;;;;;;;6.43;4.43;;;13.30;79.10;;;;;;4968924;28;20035;-34
2024/03/20 05:53:51;;;;;;;5.32;4.13;;;13.20;79.00;;;;;;4975217;28;20092;-38
2024/03/20 05:56:18;;;;;;;6.45;4.18;;;13.20;79.00;;;;;;4970702;28;20031;-38
2024/03/20 05:58:44;;;;;;;5.85;4.10;;;13.20;79.00;;;;;;4974026;28;20034;-40
2024/03/20 06:01:10;;;;;;;7.13;4.72;;;13.20;79.10;;;;;;4978210;28;20035;-39
2024/03/20 06:03:36;;;;;;;7.20;4.57;;;13.20;79.10;;;;;;4973666;28;20065;-39
2024/03/20 06:06:02;;;;;;;6.72;4.50;;;13.10;79.10;;;;;;4978913;28;20019;-38
2024/03/20 06:08:28;;;;;;;6.45;4.90;;;13.10;79.00;;;;;;4963709;28;20101;-39
2024/03/20 06:10:57;;;;;;;6.18;4.38;;;13.10;79.10;;;;;;4975335;28;20723;-36
2024/03/20 06:13:23;;;;;;;6.18;4.60;;;13.10;79.10;;;;;;4941283;28;20035;-37
2024/03/20 06:15:49;;;;;;;6.07;4.75;;;13.10;79.00;;;;;;4975489;28;20425;-37
2024/03/20 06:18:14;;;;;;;6.40;4.57;;;13.10;79.10;;;;;;4970923;28;20050;-36
2024/03/20 06:20:40;;;;;;;6.45;4.72;;;13.10;79.10;;;;;;4966114;28;20039;-36
2024/03/20 06:23:06;;;;;;;6.07;4.78;;;13.00;79.10;;;;;;4972524;28;20430;-37
2024/03/20 06:25:32;;;;;;;6.43;4.75;;;13.00;79.10;;;;;;4972883;28;20133;-37
2024/03/20 06:27:58;;;;;;;6.00;4.70;;;13.00;79.10;;;;;;4966821;28;20015;-40
2024/03/20 06:30:25;;;;;;;5.90;4.55;;;13.00;79.10;;;;;;4968298;28;20023;-40
2024/03/20 06:32:51;;;;;;;6.07;4.72;;;13.00;79.20;;;;;;4961345;28;20122;-41
2024/03/20 06:35:17;;;;;;;7.22;5.00;;;13.00;79.20;;;;;;4974369;28;20074;-40
2024/03/20 06:37:43;;;;;;;6.13;4.43;;;13.00;79.20;;;;;;4967017;28;20031;-42
2024/03/20 06:40:13;;;;;;;6.57;5.13;;;13.00;79.20;;;;;;4960707;28;20027;-41
2024/03/20 06:42:39;;;;;;;5.85;4.70;;;13.00;79.20;;;;;;4978014;28;20054;-41
2024/03/20 06:45:06;;;;;;;6.15;4.53;;;13.00;79.20;;;;;;4967602;28;20109;-41
2024/03/20 06:47:32;;;;;;;6.18;4.75;;;13.00;79.30;;;;;;4979423;28;20078;-41
2024/03/20 06:49:59;;;;;;;6.20;4.60;;;13.00;79.30;;;;;;4972622;28;20067;-42
2024/03/20 06:52:25;;;;;;;7.68;5.28;;;12.90;79.20;;;;;;4976627;28;20104;-40
2024/03/20 06:54:51;;;;;;;6.50;4.80;;;12.90;79.20;;;;;;4975175;28;20085;-40
2024/03/20 06:57:18;;;;;;;6.40;4.50;;;12.90;79.30;;;;;;4980340;28;20403;-35
2024/03/20 06:59:48;;;;;;;6.47;4.75;;;12.90;79.30;;;;;;4986150;28;20081;-41
2024/03/20 07:02:14;;;;;;;6.10;4.53;;;12.90;79.30;;;;;;4981904;28;20525;-37
2024/03/20 07:04:40;;;;;;;6.07;4.82;;;12.90;79.30;;;;;;4978940;28;20509;-39
2024/03/20 07:07:08;;;;;;;5.93;4.68;;;12.90;79.30;;;;;;4979683;28;20094;-37
2024/03/20 07:09:34;;;;;;;7.20;5.13;;;12.90;79.30;;;;;;4981941;28;20037;-38
2024/03/20 07:12:01;;;;;;;6.13;4.70;;;12.90;79.30;;;;;;4979830;28;20042;-38
2024/03/20 07:14:28;;;;;;;5.45;4.18;;;12.90;79.40;;;;;;4970066;28;20023;-37
2024/03/20 07:16:54;;;;;;;5.97;4.68;;;12.90;79.50;;;;;;4982869;28;20035;-35
2024/03/20 07:19:20;;;;;;;5.97;4.40;;;12.90;79.40;;;;;;4975308;28;20031;-38
2024/03/20 07:21:46;;;;;;;7.38;4.50;;;12.90;79.40;;;;;;4968536;28;20027;-36
2024/03/20 07:24:12;;;;;;;5.90;4.88;;;12.90;79.40;;;;;;4982453;28;20039;-42
2024/03/20 07:26:39;;;;;;;6.05;4.43;;;12.90;79.40;;;;;;4984717;28;20023;-43
2024/03/20 07:29:09;;;;;;;6.38;4.60;;;12.90;79.40;;;;;;4975694;28;20054;-39
2024/03/20 07:31:39;;;;;;;6.63;4.78;;;12.90;79.40;;;;;;4969931;28;20027;-35
2024/03/20 07:34:05;;;;;;;5.80;4.45;;;12.90;79.40;;;;;;4967131;28;20027;-38
2024/03/20 07:36:35;;;;;;;5.53;4.22;;;12.90;79.40;;;;;;4988152;28;20050;-38
2024/03/20 07:39:03;;;;;;;5.82;4.70;;;12.90;79.40;;;;;;4969574;28;20031;-37
2024/03/20 07:41:29;;;;;;;7.20;4.68;;;12.90;79.40;;;;;;4975668;28;20412;-37
2024/03/20 07:43:55;;;;;;;6.07;4.50;;;12.90;79.40;;;;;;4976664;28;20113;-37
2024/03/20 07:46:21;;;;;;;6.53;4.63;;;13.00;80.10;;;;;;4991377;28;20029;-38
2024/03/20 07:48:49;;;;;;;6.15;4.47;;;13.00;79.50;;;;;;4980835;28;20034;-39
2024/03/20 07:51:16;;;;;;;6.50;4.85;;;13.00;79.60;;;;;;4978210;28;20054;-37
2024/03/20 07:53:42;;;;;;;6.85;4.97;;;13.00;79.60;;;;;;4971827;28;20031;-40
2024/03/20 07:56:08;;;;;;;6.22;4.68;;;13.00;79.60;;;;;;4983630;28;20030;-36
2024/03/20 07:58:35;;;;;;;6.25;5.07;;;13.00;79.60;;;;;;4965417;28;20023;-36
2024/03/20 08:01:01;;;;;;;7.82;5.00;;;13.00;79.60;;;;;;4970248;28;20423;-37
2024/03/20 08:03:27;;;;;;;6.43;4.70;;;13.00;79.50;;;;;;4980127;28;20095;-36
2024/03/20 08:05:53;;;;;;;7.70;5.18;;;13.10;79.60;;;;;;4975909;28;20092;-36
2024/03/20 08:08:18;;;;;;;6.35;4.97;;;13.00;79.50;;;;;;4960360;28;20063;-38
2024/03/20 08:10:45;;;;;;;6.88;5.13;;;13.10;79.60;;;;;;4977919;28;20027;-37
2024/03/20 08:13:11;;;;;;;7.13;5.28;;;13.10;79.70;;;;;;4974389;28;20031;-38
2024/03/20 08:15:39;;;;;;;8.38;5.40;;;13.10;79.60;;;;;;4978660;28;20107;-39
2024/03/20 08:18:07;;;;;;;6.90;5.35;;;13.10;79.60;;;;;;4969123;28;20031;-38
2024/03/20 08:20:33;;;;;;;6.93;5.40;;;13.20;79.70;;;;;;4978646;28;20366;-38
2024/03/20 08:23:03;;;;;;;7.85;5.53;;;13.10;79.60;;;;;;4973659;28;20043;-37
2024/03/20 08:25:28;;;;;;;7.05;5.57;;;13.20;80.30;;;;;;4946638;28;20451;-38
2024/03/20 08:27:55;;;;;;;8.57;5.68;;;13.20;79.70;;;;;;4979474;28;20483;-36
2024/03/20 08:30:21;;;;;;;7.28;5.80;;;13.20;80.30;;;;;;4975743;28;20088;-35
2024/03/20 08:32:48;;;;;;;7.40;5.70;;;13.20;79.60;;;;;;4956262;28;20070;-37
2024/03/20 08:35:16;;;;;;;7.55;6.13;;;13.30;79.70;;;;;;4961646;28;20557;-39
2024/03/20 08:37:43;;;;;;;7.53;5.93;;;13.30;79.80;;;;;;4981718;28;20026;-37
2024/03/20 08:40:10;;;;;;;8.05;5.93;;;13.30;79.80;;;;;;4978001;28;20504;-37
2024/03/20 08:42:36;;;;;;;7.63;5.85;;;13.30;79.80;;;;;;4967184;28;20448;-39
2024/03/20 08:45:03;;;;;;;9.15;6.20;;;13.40;79.80;;;;;;4957392;28;20026;-35
2024/03/20 08:47:30;;;;;;;7.35;5.93;;;13.40;79.80;;;;;;4980380;28;20458;-39
2024/03/20 08:49:56;;;;;;;9.80;6.57;;;13.40;79.80;;;;;;4974763;28;20041;-37
2024/03/20 08:52:21;;;;;;;7.35;6.18;;;13.40;79.80;;;;;;4955023;28;20071;-36
2024/03/20 08:54:50;;;;;;;7.47;6.38;;;13.40;79.80;;;;;;4948373;28;20035;-37
2024/03/20 08:57:17;;;;;;;8.07;6.50;;;13.50;79.90;;;;;;4976693;28;20039;-39
2024/03/20 08:59:43;;;;;;;8.00;6.57;;;13.50;79.90;;;;;;4960575;28;20484;-37
2024/03/20 09:02:09;;;;;;;9.48;6.80;;;13.50;79.90;;;;;;4974338;28;20042;-36
2024/03/20 09:04:35;;;;;;;9.27;6.88;;;13.50;79.90;;;;;;4966356;28;20023;-38
2024/03/20 09:07:01;;;;;;;10.10;7.95;;;13.60;79.90;;;;;;4987879;28;20098;-39
2024/03/20 09:09:28;;;;;;;9.57;7.57;;;13.70;79.90;;;;;;4964667;28;20046;-37
2024/03/20 09:11:54;;;;;;;10.10;7.90;;;13.70;79.90;;;;;;4964339;28;20094;-37
2024/03/20 09:14:20;;;;;;;9.95;7.88;;;13.70;79.90;;;;;;4974110;28;20035;-37
2024/03/20 09:16:49;;;;;;;10.05;8.73;;;13.70;79.80;;;;;;4974509;28;20081;-41
2024/03/20 09:19:16;;;;;;;10.65;8.50;;;13.80;79.90;;;;;;4962028;28;20535;-40
2024/03/20 09:21:43;;;;;;;10.85;8.15;;;13.90;79.80;;;;;;4969290;28;20038;-34
2024/03/20 09:24:15;;;;;;;11.95;9.02;;;13.90;79.80;;;;;;4968540;28;20020;-39
2024/03/20 09:26:41;;;;;;;12.05;8.65;;;14.00;79.80;;;;;;4973798;28;20080;-35
2024/03/20 09:29:07;;;;;;;10.30;8.35;;;14.00;79.80;;;;;;4967673;28;20491;-38
2024/03/20 09:31:33;;;;;;;10.57;8.60;;;14.10;79.70;;;;;;4964361;28;20427;-38
2024/03/20 09:33:59;;;;;;;10.43;8.98;;;14.10;79.60;;;;;;4959948;28;20023;-35
2024/03/20 09:36:26;;;;;;;10.82;9.05;;;14.20;79.60;;;;;;4973785;28;20129;-35
2024/03/20 09:38:52;;;;;;;10.55;9.07;;;14.20;80.20;;;;;;4967079;28;20031;-36
2024/03/20 09:41:22;;;;;;;11.40;9.30;;;14.30;79.60;;;;;;4966351;28;20395;-38
2024/03/20 09:43:52;;;;;;;10.13;8.48;;;14.30;79.50;;;;;;4966459;28;20027;-34
2024/03/20 09:46:23;;;;;;;10.63;9.07;;;14.40;79.50;;;;;;4987731;28;20026;-38
2024/03/20 09:48:50;;;;;;;12.30;9.27;;;14.50;79.40;;;;;;4955473;28;20035;-38
2024/03/20 09:51:20;;;;;;;11.63;9.25;;;14.50;79.30;;;;;;4973989;28;20121;-38
2024/03/20 09:53:51;;;;;;;11.25;9.70;;;14.60;79.30;;;;;;4959365;28;20027;-38
2024/03/20 09:56:18;;;;;;;11.05;9.25;;;14.70;79.40;;;;;;4972377;28;20043;-37
2024/03/20 09:58:45;;;;;;;11.50;9.75;;;14.70;79.30;;;;;;4962588;28;20062;-35
2024/03/20 10:01:16;;;;;;;11.95;9.65;;;14.80;79.90;;;;;;4960279;28;20094;-40
2024/03/20 10:03:45;;;;;;;12.27;9.75;;;14.90;79.30;;;;;;4972549;28;20054;-40
2024/03/20 10:06:11;;;;;;;10.98;9.55;;;14.90;79.20;;;;;;4974208;28;20794;-40
2024/03/20 10:08:38;;;;;;;11.23;9.88;;;15.00;79.20;;;;;;4974808;28;20051;-42
2024/03/20 10:11:08;;;;;;;11.82;9.93;;;15.10;79.20;;;;;;4962282;28;20027;-40
2024/03/20 10:13:39;;;;;;;11.35;9.63;;;15.20;79.20;;;;;;4959321;28;20042;-42
2024/03/20 10:16:05;;;;;;;12.20;9.60;;;15.20;79.10;;;;;;4979565;28;20042;-40
2024/03/20 10:18:31;;;;;;;11.10;9.77;;;15.30;79.10;;;;;;4953502;28;20027;-39
2024/03/20 10:20:57;;;;;;;12.30;10.20;;;15.40;79.10;;;;;;4959607;28;20041;-41
2024/03/20 10:23:24;;;;;;;12.30;10.77;;;15.50;79.10;;;;;;4967100;28;20038;-41
2024/03/20 10:25:50;;;;;;;12.43;10.75;;;15.50;79.10;;;;;;4970103;28;20014;-40
2024/03/20 10:28:19;;;;;;;12.13;10.48;;;15.60;79.00;;;;;;4979098;28;20058;-41
2024/03/20 10:30:46;;;;;;;13.40;10.48;;;15.70;79.00;;;;;;4964641;28;20050;-41
2024/03/20 10:33:19;;;;;;;11.98;10.52;;;15.70;78.90;;;;;;4976997;28;20111;-39
2024/03/20 10:35:53;;;;;;;12.63;10.55;;;15.80;79.60;;;;;;4969196;28;20082;-41
2024/03/20 10:38:19;;;;;;;12.57;10.50;;;15.90;79.00;;;;;;4981765;28;20054;-39
2024/03/20 10:40:49;;;;;;;12.30;10.38;;;15.90;78.80;;;;;;4954490;28;20027;-41
2024/03/20 10:43:19;;;;;;;12.27;10.93;;;16.10;78.90;;;;;;4975967;28;20026;-40
2024/03/20 10:45:46;;;;;;;12.40;10.77;;;16.10;78.90;;;;;;4982137;28;20031;-39
2024/03/20 10:48:19;;;;;;;12.75;10.82;;;16.20;78.90;;;;;;4974147;28;20118;-42
2024/03/20 10:50:51;;;;;;;12.60;11.30;;;16.20;78.80;;;;;;4979379;28;20023;-36
2024/03/20 10:53:18;;;;;;;12.85;11.23;;;16.30;78.70;;;;;;4982364;28;20098;-40
2024/03/20 10:55:49;;;;;;;12.63;11.10;;;16.40;78.70;;;;;;4968143;28;20525;-41
2024/03/20 10:58:16;;;;;;;12.60;10.98;;;16.40;78.70;;;;;;4978420;28;20086;-41
2024/03/20 11:00:46;;;;;;;12.40;10.90;;;16.50;78.60;;;;;;4970260;28;20095;-42
2024/03/20 11:03:42;;;;;;;12.40;11.10;;;16.60;79.30;;;;;;4980913;28;20038;-38
2024/03/20 11:06:39;;;;;;;12.50;10.43;;;16.70;78.70;;;;;;4979755;28;20034;-41
2024/03/20 11:09:07;;;;;;;11.52;10.13;;;16.80;78.70;;;;;;4958256;28;20751;-39
2024/03/20 11:11:34;;;;;;;12.13;10.90;;;16.90;78.60;;;;;;4981767;28;20027;-41
2024/03/20 11:14:04;;;;;;;12.00;10.80;;;16.90;78.60;;;;;;4980807;28;20037;-39
2024/03/20 11:16:30;;;;;;;13.50;10.93;;;17.00;78.60;;;;;;4983100;28;20034;-40
2024/03/20 11:18:58;;;;;;;13.15;11.75;;;17.10;78.60;;;;;;4978507;28;20023;-40
2024/03/20 11:21:24;;;;;;;12.13;10.85;;;17.10;78.50;;;;;;4978634;28;20023;-38
2024/03/20 11:23:52;;;;;;;12.45;11.15;;;17.20;78.50;;;;;;4982070;28;20015;-40
2024/03/20 11:26:19;;;;;;;12.00;10.80;;;17.30;78.50;;;;;;4973578;28;20058;-39
2024/03/20 11:28:47;;;;;;;12.50;11.20;;;17.30;78.40;;;;;;4981517;28;20034;-38
2024/03/20 11:31:16;;;;;;;11.82;10.52;;;17.40;78.50;;;;;;4979897;28;20231;-40
2024/03/20 11:33:43;;;;;;;12.00;10.77;;;17.50;78.50;;;;;;4972127;28;20034;-40
2024/03/20 11:36:13;;;;;;;11.25;10.02;;;17.50;78.40;;;;;;4979727;28;20073;-40
2024/03/20 11:38:40;;;;;;;11.93;10.68;;;17.60;78.40;;;;;;4975716;28;20023;-41
2024/03/20 11:41:06;;;;;;;11.43;10.32;;;17.70;78.40;;;;;;4981481;28;20038;-39
2024/03/20 11:43:34;;;;;;;13.25;11.07;;;17.80;78.40;;;;;;4983040;28;20018;-39
2024/03/20 11:46:00;;;;;;;11.93;10.57;;;17.80;78.50;;;;;;4967577;28;20014;-40
2024/03/20 11:48:26;;;;;;;11.68;10.45;;;17.90;78.40;;;;;;4977768;28;20035;-39
2024/03/20 11:50:51;;;;;;;10.63;9.52;;;17.90;78.30;;;;;;4971913;28;20027;-40
2024/03/20 11:53:18;;;;;;;11.05;9.95;;;18.00;78.40;;;;;;4977223;28;20053;-40
2024/03/20 11:55:44;;;;;;;10.55;8.93;;;18.00;78.30;;;;;;4970337;28;20031;-40
2024/03/20 11:58:14;;;;;;;10.40;9.35;;;18.10;78.30;;;;;;4982081;28;20026;-41
2024/03/20 12:00:43;;;;;;;11.40;9.45;;;18.20;78.30;;;;;;4972840;28;20038;-40
2024/03/20 12:03:24;;;;;;;11.40;10.25;;;18.20;78.30;;;;;;4976322;28;20031;-40
2024/03/20 12:06:07;;;;;;;11.38;9.60;;;18.30;78.50;;;;;;4973212;28;20050;-41
2024/03/20 12:08:33;;;;;;;10.60;9.40;;;18.40;78.40;;;;;;4973548;28;20159;-38
2024/03/20 12:11:12;;;;;;;10.50;9.32;;;18.40;78.30;;;;;;4980692;28;20030;-39
2024/03/20 12:13:38;;;;;;;10.13;8.85;;;18.50;78.30;;;;;;4978061;28;20030;-40
2024/03/20 12:16:03;;;;;;;10.40;9.38;;;18.60;78.30;;;;;;4980492;28;20061;-40
2024/03/20 12:18:29;;;;;;;10.23;9.20;;;18.60;78.30;;;;;;4970092;28;20023;-39
2024/03/20 12:20:55;;;;;;;10.70;9.65;;;18.70;78.30;;;;;;4980239;28;20379;-38
2024/03/20 12:23:20;;;;;;;10.82;9.73;;;18.70;78.40;;;;;;4963356;28;20027;-39
2024/03/20 12:25:46;;;;;;;10.60;9.20;;;18.80;78.30;;;;;;4962352;28;20074;-39
2024/03/20 12:28:12;;;;;;;9.82;8.82;;;18.80;78.40;;;;;;4964135;28;20091;-39
2024/03/20 12:30:40;;;;;;;10.77;9.68;;;18.90;78.30;;;;;;4976866;28;20030;-40
2024/03/20 12:33:10;;;;;;;10.40;9.27;;;18.90;78.20;;;;;;4969589;28;20042;-40
2024/03/20 12:35:36;;;;;;;10.15;8.68;;;18.90;78.20;;;;;;4973002;28;20035;-40
2024/03/20 12:38:01;;;;;;;9.65;8.65;;;19.00;78.10;;;;;;4979317;28;20038;-41
2024/03/20 12:40:27;;;;;;;9.73;8.73;;;19.10;78.10;;;;;;4979993;28;20386;-36
2024/03/20 12:42:54;;;;;;;10.65;9.32;;;19.10;78.10;;;;;;4974827;28;20475;-37